Barfleur — FNIE — position and weather

sailwx.info

Track history (hours):
 
Tides and Currents Weather Stations Pressure Air Temp Water Temp Dewpoint Dewpoint Depression Visibility Wind Speed Wind Dir Waves Ship Positions

Barfleur

Operator: Brittany Ferries

Last reported at 2019-Apr-25 08:21 UTC. Time now 2019-Apr-25 09:50 UTC.
Position N 50°05' W 001°50'.

Length 158 m; draft 5.1 m.

Type: Ship. MMSI: 227289000.

Date/timePositionNaut miles runAvg speedWind from/ knotsBaromVisibWave heightAir tempDewpointWater temp
2019-Apr-25 08:21N 50°05' W 001°50'616.3
2019-Apr-25 08:01N 49°59' W 001°47'816.4
2019-Apr-25 07:30N 49°51' W 001°44'918.3
2019-Apr-25 07:01N 49°42' W 001°40'4 7.7
2019-Apr-25 06:29N 49°39' W 001°37'0 0.0
2019-Apr-25 05:59N 49°39' W 001°37'0 0.0
2019-Apr-25 05:29N 49°39' W 001°37'0 0.0
2019-Apr-25 05:01N 49°39' W 001°37'2 4.5
2019-Apr-25 04:31N 49°40' W 001°39'714.7
2019-Apr-25 04:00N 49°48' W 001°40'1 2.6
2019-Apr-25 03:30N 49°47' W 001°38'1 2.6
2019-Apr-25 03:00N 49°47' W 001°36'1 1.9
2019-Apr-25 02:30N 49°46' W 001°35'1 1.3
2019-Apr-25 02:00N 49°45' W 001°35'1 1.8
2019-Apr-25 01:30N 49°45' W 001°36'510.7
2019-Apr-25 01:01N 49°50' W 001°40'611.8
2019-Apr-25 00:30N 49°55' W 001°39'612.3
2019-Apr-25 00:01N 50°01' W 001°40'612.1
2019-Apr-24 23:30N 50°08' W 001°41'612.5
2019-Apr-24 23:00N 50°14' W 001°43'712.4
2019-Apr-24 22:27N 50°20' W 001°46'1017.2
2019-Apr-24 21:53N 50°30' W 001°51'2 6.2
2019-Apr-24 21:30N 50°32' W 001°52'612.3
2019-Apr-24 21:00N 50°38' W 001°54'510.0
2019-Apr-24 20:30N 50°42' W 001°58'1 1.4
2019-Apr-24 19:55N 50°42' W 001°59'0 0.0
2019-Apr-24 19:25N 50°42' W 001°59'0 0.0
2019-Apr-24 18:58N 50°42' W 001°59'0 0.0
2019-Apr-24 18:30N 50°42' W 001°59'2 4.5
2019-Apr-24 18:00N 50°41' W 001°57'713.1
2019-Apr-24 17:31N 50°35' W 001°54'1017.0
2019-Apr-24 16:55N 50°25' W 001°53'917.6
2019-Apr-24 16:25N 50°16' W 001°51'818.0
2019-Apr-24 15:57N 50°08' W 001°47'818.0
2019-Apr-24 15:30N 50°01' W 001°42'917.8
2019-Apr-24 15:01N 49°52' W 001°40'918.0
2019-Apr-24 14:30N 49°43' W 001°36'4 8.3
2019-Apr-24 14:00N 49°39' W 001°37'0 0.1
2019-Apr-24 13:30N 49°39' W 001°37'0 0.0
2019-Apr-24 13:00N 49°39' W 001°37'64132.6
2019-Apr-24 12:31N 50°42' W 001°57'64128.1
2019-Apr-24 12:00N 49°39' W 001°37'3 5.7
2019-Apr-24 11:30N 49°42' W 001°36'815.5
2019-Apr-24 11:00N 49°49' W 001°37'815.2
2019-Apr-24 10:30N 49°57' W 001°39'815.6
2019-Apr-24 10:00N 50°04' W 001°42'815.8
2019-Apr-24 09:30N 50°12' W 001°45'815.8
2019-Apr-24 08:59N 50°20' W 001°48'1817.6
2019-Apr-24 07:57N 50°38' W 001°54'511.4
2019-Apr-24 07:31N 50°42' W 001°58'1 1.6
2019-Apr-24 06:52N 50°42' W 001°59'0 0.0
2019-Apr-24 06:28N 50°42' W 001°59'0 0.0
2019-Apr-24 06:00N 50°42' W 001°59'2 3.8
2019-Apr-24 05:31N 50°41' W 001°57'3713.8
2019-Apr-24 02:50N 50°06' W 001°39'514.2
2019-Apr-24 02:27N 50°01' W 001°36'613.9
2019-Apr-24 02:00N 49°55' W 001°33'713.8
2019-Apr-24 01:30N 49°49' W 001°29'3 5.1
2019-Apr-24 01:00N 49°46' W 001°29'1 1.1
2019-Apr-24 00:30N 49°46' W 001°29'1 1.5
2019-Apr-24 00:00N 49°46' W 001°30'1 2.2
2019-Apr-23 23:31N 49°45' W 001°32'1 2.8
2019-Apr-23 23:00N 49°45' W 001°34'2 3.1
2019-Apr-23 22:30N 49°45' W 001°37'2 3.8
2019-Apr-23 22:01N 49°45' W 001°39'2 3.9
2019-Apr-23 21:31N 49°45' W 001°42'3 6.1
2019-Apr-23 21:00N 49°42' W 001°42'5 9.8
2019-Apr-23 20:29N 49°39' W 001°37'0 0.1
2019-Apr-23 20:00N 49°39' W 001°37'0 0.0
2019-Apr-23 19:30N 49°39' W 001°37'0 0.0
2019-Apr-23 18:59N 49°39' W 001°37'0 0.0
2019-Apr-23 18:30N 49°39' W 001°37'0 0.0
2019-Apr-23 17:57N 49°39' W 001°37'0 0.0
2019-Apr-23 17:30N 49°39' W 001°37'0 0.1
2019-Apr-23 17:00N 49°39' W 001°37'611.6
2019-Apr-23 16:30N 49°44' W 001°41'815.4
2019-Apr-23 16:00N 49°52' W 001°42'815.4
2019-Apr-23 15:30N 49°59' W 001°43'815.6
2019-Apr-23 15:01N 50°07' W 001°45'815.6
2019-Apr-23 14:31N 50°15' W 001°46'1417.1
2019-Apr-23 13:40N 50°29' W 001°50'318.0
2019-Apr-23 13:31N 50°32' W 001°51'916.9
2019-Apr-23 13:00N 50°40' W 001°56'1530.0
2019-Apr-23 12:31N 50°25' W 001°52'1832.4
2019-Apr-23 11:57N 50°42' W 001°59'0 0.0
2019-Apr-23 11:27N 50°42' W 001°59'0 0.2
2019-Apr-23 11:01N 50°42' W 001°60'4 7.0
2019-Apr-23 10:31N 50°40' W 001°56'1917.1
2019-Apr-23 09:24N 50°21' W 001°50'1417.5
2019-Apr-23 08:36N 50°07' W 001°45'218.0
2019-Apr-23 08:31N 50°06' W 001°45'917.9
2019-Apr-23 08:00N 49°57' W 001°43'917.9
2019-Apr-23 07:30N 49°48' W 001°41'816.7
2019-Apr-23 07:01N 49°40' W 001°38'2 3.0
2019-Apr-23 06:29N 49°39' W 001°37'0 0.0
2019-Apr-23 05:59N 49°39' W 001°37'0 0.0
2019-Apr-23 05:29N 49°39' W 001°37'0 0.0
2019-Apr-23 05:00N 49°39' W 001°37'2 4.5
2019-Apr-23 04:31N 49°40' W 001°39'713.1
2019-Apr-23 04:00N 49°44' W 001°47'2 3.2
2019-Apr-23 03:30N 49°44' W 001°45'2 4.4
2019-Apr-23 03:00N 49°44' W 001°42'2 3.9
2019-Apr-23 02:30N 49°43' W 001°39'2 3.0
2019-Apr-23 02:00N 49°44' W 001°36'1 2.1
2019-Apr-23 01:30N 49°44' W 001°35'1 1.3
2019-Apr-23 01:00N 49°44' W 001°34'2 3.5
2019-Apr-23 00:31N 49°46' W 001°34'714.4
2019-Apr-23 00:01N 49°53' W 001°35'714.3
2019-Apr-22 23:30N 50°00' W 001°37'714.4
2019-Apr-22 23:00N 50°07' W 001°40'714.7
2019-Apr-22 22:31N 50°14' W 001°43'714.5
2019-Apr-22 22:00N 50°21' W 001°46'714.3
2019-Apr-22 21:30N 50°28' W 001°50'713.8
2019-Apr-22 21:00N 50°35' W 001°53'612.6
2019-Apr-22 20:30N 50°40' W 001°56'3 5.8
2019-Apr-22 20:00N 50°42' W 001°59'0 0.0
2019-Apr-22 19:30N 50°42' W 001°59'0 0.0
2019-Apr-22 19:00N 50°42' W 001°59'0 0.0
2019-Apr-22 18:30N 50°42' W 001°59'0 0.1
2019-Apr-22 18:00N 50°42' W 001°59'2 4.9
2019-Apr-22 17:31N 50°41' W 001°57'612.3
2019-Apr-22 17:01N 50°35' W 001°54'917.2
2019-Apr-22 16:30N 50°26' W 001°52'917.7
2019-Apr-22 16:01N 50°18' W 001°49'917.8
2019-Apr-22 15:31N 50°09' W 001°47'917.7
2019-Apr-22 15:01N 50°00' W 001°44'917.6
2019-Apr-22 14:30N 49°51' W 001°42'917.1
2019-Apr-22 14:00N 49°43' W 001°40'5 9.3
2019-Apr-22 13:30N 49°39' W 001°37'0 0.0
2019-Apr-22 13:00N 49°39' W 001°37'0 0.0
2019-Apr-22 12:30N 49°39' W 001°37'0 0.0
2019-Apr-22 12:00N 49°39' W 001°37'2 4.4
2019-Apr-22 11:31N 49°41' W 001°35'816.1
2019-Apr-22 11:00N 49°49' W 001°36'816.5
2019-Apr-22 10:30N 49°57' W 001°39'816.0
2019-Apr-22 10:01N 50°05' W 001°42'917.1
2019-Apr-22 09:31N 50°13' W 001°45'917.9
2019-Apr-22 09:01N 50°22' W 001°48'917.9
2019-Apr-22 08:31N 50°30' W 001°51'816.7
2019-Apr-22 08:00N 50°39' W 001°55'5 9.3
2019-Apr-22 07:30N 50°42' W 001°59'0 0.9
2019-Apr-22 06:59N 50°42' W 001°59'0 0.0
2019-Apr-22 06:30N 50°42' W 001°59'0 0.0
2019-Apr-22 06:01N 50°42' W 001°59'2 3.9
2019-Apr-22 05:30N 50°41' W 001°57'510.6
2019-Apr-22 05:01N 50°36' W 001°54'713.5
2019-Apr-22 04:30N 50°30' W 001°53'713.0
2019-Apr-22 04:00N 50°23' W 001°53'713.6
2019-Apr-22 03:30N 50°16' W 001°51'713.5
2019-Apr-22 03:00N 50°10' W 001°49'714.7
2019-Apr-22 02:30N 50°03' W 001°45'713.6
2019-Apr-22 02:00N 49°56' W 001°43'713.6
2019-Apr-22 01:30N 49°50' W 001°41'713.3
2019-Apr-22 01:01N 49°43' W 001°40'1 1.7
2019-Apr-22 00:30N 49°43' W 001°39'1 1.6
2019-Apr-22 00:00N 49°43' W 001°37'0 0.7
2019-Apr-21 23:30N 49°43' W 001°37'0 0.7
2019-Apr-21 23:00N 49°43' W 001°37'1 1.2
2019-Apr-21 22:30N 49°44' W 001°38'1 1.9
2019-Apr-21 22:00N 49°44' W 001°40'1 2.7
2019-Apr-21 21:30N 49°44' W 001°42'2 3.8
2019-Apr-21 21:00N 49°44' W 001°44'612.0
2019-Apr-21 20:30N 49°40' W 001°38'2 2.8
2019-Apr-21 19:58N 49°39' W 001°37'0 0.0
2019-Apr-21 19:28N 49°39' W 001°37'0 0.0
2019-Apr-21 18:58N 49°39' W 001°37'0 0.0
2019-Apr-21 18:28N 49°39' W 001°37'0 0.0
2019-Apr-21 17:58N 49°39' W 001°37'0 0.0
2019-Apr-21 17:28N 49°39' W 001°37'0 0.2
2019-Apr-21 17:00N 49°39' W 001°37'611.6
2019-Apr-21 16:30N 49°44' W 001°41'917.6
2019-Apr-21 16:00N 49°53' W 001°43'917.4
2019-Apr-21 15:30N 50°01' W 001°45'917.1
2019-Apr-21 15:00N 50°10' W 001°46'815.2
2019-Apr-21 14:30N 50°17' W 001°48'815.5
2019-Apr-21 14:00N 50°25' W 001°51'917.8
2019-Apr-21 13:30N 50°34' W 001°53'815.9
2019-Apr-21 13:00N 50°41' W 001°57'2 3.6
2019-Apr-21 12:29N 50°42' W 001°59'0 0.0
2019-Apr-21 11:55N 50°42' W 001°59'0 0.0
2019-Apr-21 11:28N 50°42' W 001°59'2 3.3
2019-Apr-21 11:01N 50°42' W 001°57'612.2
2019-Apr-21 10:30N 50°36' W 001°53'917.2
2019-Apr-21 10:00N 50°28' W 001°48'816.7
2019-Apr-21 09:30N 50°20' W 001°44'817.0
2019-Apr-21 09:00N 50°12' W 001°43'917.3
2019-Apr-21 08:30N 50°03' W 001°42'917.4
2019-Apr-21 08:00N 49°55' W 001°42'816.6
2019-Apr-21 07:31N 49°46' W 001°40'713.9
2019-Apr-21 07:01N 49°40' W 001°37'1 1.6
2019-Apr-21 06:28N 49°39' W 001°37'0 0.0
2019-Apr-21 05:58N 49°39' W 001°37'0 0.0
2019-Apr-21 05:28N 49°39' W 001°37'0 0.0
2019-Apr-21 05:00N 49°39' W 001°37'2 4.2
2019-Apr-21 04:31N 49°40' W 001°39'815.2
2019-Apr-21 04:00N 49°45' W 001°48'2 3.4
2019-Apr-21 03:30N 49°45' W 001°46'2 4.3
2019-Apr-21 03:00N 49°45' W 001°43'2 4.1
2019-Apr-21 02:30N 49°45' W 001°39'2 4.0
2019-Apr-21 02:00N 49°45' W 001°36'2 4.1
2019-Apr-21 01:30N 49°46' W 001°33'2 3.6
2019-Apr-21 01:00N 49°46' W 001°30'3 5.4
2019-Apr-21 00:30N 49°48' W 001°33'713.8
2019-Apr-21 00:01N 49°54' W 001°37'714.3
2019-Apr-20 23:31N 50°00' W 001°42'714.6
2019-Apr-20 23:00N 50°07' W 001°45'714.4
2019-Apr-20 22:31N 50°14' W 001°47'714.0
2019-Apr-20 22:00N 50°21' W 001°48'713.4
2019-Apr-20 21:30N 50°28' W 001°48'713.9
2019-Apr-20 21:00N 50°35' W 001°52'713.1
2019-Apr-20 20:30N 50°41' W 001°56'3 4.7
2019-Apr-20 19:55N 50°42' W 001°59'0 0.0
2019-Apr-20 19:28N 50°42' W 001°59'0 0.0
2019-Apr-20 19:00N 50°42' W 001°59'0 0.0
2019-Apr-20 18:30N 50°42' W 001°59'0 0.0
2019-Apr-20 18:00N 50°42' W 001°59'2 3.7
2019-Apr-20 17:31N 50°41' W 001°57'713.4
2019-Apr-20 17:01N 50°35' W 001°53'917.6
2019-Apr-20 16:31N 50°26' W 001°51'917.1
2019-Apr-20 16:01N 50°18' W 001°52'815.1
2019-Apr-20 15:30N 50°10' W 001°52'816.6
2019-Apr-20 15:01N 50°03' W 001°47'815.8
2019-Apr-20 14:31N 49°55' W 001°44'917.3
2019-Apr-20 14:01N 49°47' W 001°41'815.5
2019-Apr-20 13:31N 49°39' W 001°37'1 1.1
2019-Apr-20 13:00N 49°39' W 001°37'0 0.0
2019-Apr-20 12:30N 49°39' W 001°37'0 0.0
2019-Apr-20 12:00N 49°39' W 001°37'0 0.0
2019-Apr-20 11:30N 49°39' W 001°37'0 0.0
2019-Apr-20 11:00N 49°39' W 001°37'0 0.0
2019-Apr-20 10:30N 49°39' W 001°37'0 0.0
2019-Apr-20 10:00N 49°39' W 001°37'0 0.0
2019-Apr-20 09:30N 49°39' W 001°37'0 0.0
2019-Apr-20 09:00N 49°39' W 001°37'0 0.0
2019-Apr-20 08:30N 49°39' W 001°37'0 0.0
2019-Apr-20 08:00N 49°39' W 001°37'0 0.0
2019-Apr-20 07:28N 49°39' W 001°37'0 0.0
2019-Apr-20 06:58N 49°39' W 001°37'0 0.0
2019-Apr-20 06:28N 49°39' W 001°37'0 0.0
2019-Apr-20 05:58N 49°39' W 001°37'0 0.0
2019-Apr-20 05:28N 49°39' W 001°37'0 0.0
2019-Apr-20 05:00N 49°39' W 001°37'2 3.9
2019-Apr-20 04:30N 49°40' W 001°39'611.6
2019-Apr-20 04:00N 49°45' W 001°43'3 5.1
2019-Apr-20 03:30N 49°45' W 001°47'1 1.6
2019-Apr-20 03:00N 49°44' W 001°47'2 3.8
2019-Apr-20 02:30N 49°44' W 001°44'2 4.1
2019-Apr-20 02:00N 49°44' W 001°40'2 4.0
2019-Apr-20 01:30N 49°45' W 001°37'2 3.4
2019-Apr-20 01:00N 49°45' W 001°35'4 7.9
2019-Apr-20 00:30N 49°49' W 001°37'612.8
2019-Apr-20 00:00N 49°54' W 001°41'713.8
2019-Apr-19 23:31N 50°01' W 001°45'714.3
2019-Apr-19 23:01N 50°08' W 001°47'714.5
2019-Apr-19 22:30N 50°15' W 001°51'713.9
2019-Apr-19 22:00N 50°22' W 001°51'713.6
2019-Apr-19 21:30N 50°29' W 001°52'713.2
2019-Apr-19 21:00N 50°35' W 001°53'612.1
2019-Apr-19 20:30N 50°41' W 001°57'3 4.8
2019-Apr-19 19:59N 50°42' W 001°59'0 0.0
2019-Apr-19 19:29N 50°42' W 001°59'0 0.0
2019-Apr-19 19:00N 50°42' W 001°59'0 0.0
2019-Apr-19 18:30N 50°42' W 001°59'1 1.8
2019-Apr-19 18:00N 50°42' W 001°58'3 6.4
2019-Apr-19 17:30N 50°39' W 001°55'4 7.6
2019-Apr-19 17:00N 50°36' W 001°53'1717.9
2019-Apr-19 16:03N 50°19' W 001°49'117.9
2019-Apr-19 16:00N 50°18' W 001°49'917.9
2019-Apr-19 15:30N 50°10' W 001°46'917.4
2019-Apr-19 15:00N 50°01' W 001°44'816.7
2019-Apr-19 14:30N 49°53' W 001°44'917.3
2019-Apr-19 14:00N 49°44' W 001°42'612.4
2019-Apr-19 13:30N 49°39' W 001°37'0 0.0
2019-Apr-19 13:00N 49°39' W 001°37'0 0.0
2019-Apr-19 12:30N 49°39' W 001°37'0 0.0
2019-Apr-19 12:00N 49°39' W 001°37'4 7.3
2019-Apr-19 11:31N 49°42' W 001°40'817.0
2019-Apr-19 11:00N 49°50' W 001°43'816.6
2019-Apr-19 10:30N 49°58' W 001°46'815.8
2019-Apr-19 10:00N 50°06' W 001°46'816.1
2019-Apr-19 09:30N 50°14' W 001°47'816.2
2019-Apr-19 09:01N 50°22' W 001°49'917.3
2019-Apr-19 08:31N 50°31' W 001°51'816.5
2019-Apr-19 08:00N 50°39' W 001°55'5 9.9
2019-Apr-19 07:30N 50°42' W 001°59'0 0.1
2019-Apr-19 07:00N 50°42' W 001°59'0 0.0
2019-Apr-19 06:30N 50°42' W 001°59'0 0.0
2019-Apr-19 06:00N 50°42' W 001°59'2 3.4
2019-Apr-19 05:31N 50°42' W 001°57'713.6
2019-Apr-19 05:00N 50°36' W 001°52'1216.8
2019-Apr-19 04:19N 50°24' W 001°52'515.2
2019-Apr-19 03:59N 50°19' W 001°51'613.1
2019-Apr-19 03:30N 50°13' W 001°50'611.5
2019-Apr-19 03:00N 50°07' W 001°50'611.8
2019-Apr-19 02:30N 50°01' W 001°48'612.7
2019-Apr-19 02:01N 49°55' W 001°45'713.4
2019-Apr-19 01:30N 49°49' W 001°43'510.6
2019-Apr-19 01:00N 49°43' W 001°41'1 1.5
2019-Apr-19 00:30N 49°43' W 001°40'3 5.6
2019-Apr-19 00:00N 49°43' W 001°44'2 3.7
2019-Apr-18 23:31N 49°43' W 001°47'2 3.4
2019-Apr-18 23:00N 49°43' W 001°44'1 2.7
2019-Apr-18 22:30N 49°43' W 001°42'1 1.6
2019-Apr-18 22:00N 49°43' W 001°41'0 0.9
2019-Apr-18 21:30N 49°43' W 001°40'0 0.7
2019-Apr-18 21:00N 49°43' W 001°40'3 6.8
2019-Apr-18 20:30N 49°40' W 001°38'1 2.5
2019-Apr-18 20:00N 49°39' W 001°37'0 0.0
2019-Apr-18 19:30N 49°39' W 001°37'0 0.0
2019-Apr-18 19:00N 49°39' W 001°37'0 0.0
2019-Apr-18 18:30N 49°39' W 001°37'0 0.0
2019-Apr-18 18:00N 49°39' W 001°37'0 0.0
2019-Apr-18 17:31N 49°39' W 001°37'1 1.3
2019-Apr-18 17:00N 49°40' W 001°37'713.2
2019-Apr-18 16:30N 49°46' W 001°41'816.6
2019-Apr-18 16:00N 49°54' W 001°43'917.0
2019-Apr-18 15:30N 50°02' W 001°46'917.3
2019-Apr-18 15:00N 50°11' W 001°47'815.4
2019-Apr-18 14:30N 50°18' W 001°49'815.1
2019-Apr-18 14:00N 50°26' W 001°51'816.1
2019-Apr-18 13:30N 50°34' W 001°53'815.6
2019-Apr-18 13:01N 50°41' W 001°57'2 4.1
2019-Apr-18 12:30N 50°42' W 001°59'0 0.0
2019-Apr-18 12:00N 50°42' W 001°59'0 0.0
2019-Apr-18 11:30N 50°42' W 001°59'0 0.1
2019-Apr-18 11:00N 50°42' W 001°60'4 8.2
2019-Apr-18 10:30N 50°39' W 001°55'816.3
2019-Apr-18 10:00N 50°32' W 001°51'1517.1
2019-Apr-18 09:06N 50°16' W 001°49'216.9
2019-Apr-18 09:00N 50°15' W 001°49'816.8
2019-Apr-18 08:30N 50°06' W 001°46'816.9
2019-Apr-18 08:00N 49°58' W 001°44'816.6
2019-Apr-18 07:30N 49°50' W 001°42'816.3
2019-Apr-18 07:00N 49°42' W 001°40'4 7.4
2019-Apr-18 06:30N 49°39' W 001°37'0 0.0
2019-Apr-18 06:00N 49°39' W 001°37'0 0.0
2019-Apr-18 05:30N 49°39' W 001°37'0 0.0
2019-Apr-18 05:00N 49°39' W 001°37'3 5.5
2019-Apr-18 04:30N 49°41' W 001°39'1 1.0
2019-Apr-18 04:00N 49°41' W 001°40'0 0.8
2019-Apr-18 03:30N 49°42' W 001°40'1 1.0
2019-Apr-18 03:01N 49°42' W 001°39'1 1.6
2019-Apr-18 02:30N 49°43' W 001°38'1 2.2
2019-Apr-18 02:00N 49°43' W 001°37'1 2.9
2019-Apr-18 01:30N 49°44' W 001°35'5 9.9
2019-Apr-18 01:00N 49°49' W 001°37'510.8
2019-Apr-18 00:30N 49°54' W 001°41'611.0
2019-Apr-18 00:00N 49°59' W 001°44'612.2
2019-Apr-17 23:30N 50°05' W 001°46'613.0
2019-Apr-17 23:01N 50°11' W 001°47'713.2
2019-Apr-17 22:30N 50°18' W 001°48'713.2
2019-Apr-17 22:00N 50°24' W 001°51'713.4
2019-Apr-17 21:31N 50°31' W 001°52'713.3
2019-Apr-17 21:00N 50°37' W 001°54'510.9
2019-Apr-17 20:30N 50°42' W 001°57'1 2.7
2019-Apr-17 20:01N 50°42' W 001°59'0 0.0
2019-Apr-17 19:30N 50°42' W 001°59'0 0.0
2019-Apr-17 19:00N 50°42' W 001°59'0 0.0
2019-Apr-17 18:30N 50°42' W 001°59'1 1.0
2019-Apr-17 18:00N 50°42' W 001°59'4 8.4
2019-Apr-17 17:30N 50°39' W 001°55'816.0
2019-Apr-17 17:00N 50°31' W 001°50'917.7
2019-Apr-17 16:31N 50°23' W 001°50'917.6
2019-Apr-17 16:01N 50°14' W 001°48'917.7
2019-Apr-17 15:30N 50°05' W 001°46'917.5
2019-Apr-17 15:01N 49°56' W 001°45'917.5
2019-Apr-17 14:30N 49°48' W 001°42'816.3
2019-Apr-17 14:00N 49°40' W 001°38'1 3.0
2019-Apr-17 13:30N 49°39' W 001°37'0 0.0
2019-Apr-17 13:00N 49°39' W 001°37'0 0.0
2019-Apr-17 12:31N 49°39' W 001°37'0 0.0
2019-Apr-17 12:00N 49°39' W 001°37'4 7.9
2019-Apr-17 11:31N 49°42' W 001°40'816.5
2019-Apr-17 11:00N 49°50' W 001°42'917.2
2019-Apr-17 10:30N 49°59' W 001°44'917.8
2019-Apr-17 10:00N 50°08' W 001°45'917.8
2019-Apr-17 09:30N 50°16' W 001°49'917.9
2019-Apr-17 09:01N 50°25' W 001°50'917.7
2019-Apr-17 08:31N 50°34' W 001°53'714.5
2019-Apr-17 08:00N 50°41' W 001°57'3 5.1
2019-Apr-17 07:30N 50°42' W 001°59'0 0.0
2019-Apr-17 07:00N 50°42' W 001°59'0 0.0
2019-Apr-17 06:30N 50°42' W 001°59'0 0.2
2019-Apr-17 06:00N 50°42' W 001°60'4 8.6
2019-Apr-17 05:31N 50°39' W 001°55'816.6
2019-Apr-17 05:00N 50°32' W 001°50'2014.7
2019-Apr-17 03:40N 50°12' W 001°47'813.4
2019-Apr-17 03:02N 50°03' W 001°46'013.5
2019-Apr-17 03:00N 50°03' W 001°46'613.2
2019-Apr-17 02:30N 49°57' W 001°45'713.2
2019-Apr-17 02:00N 49°50' W 001°43'612.2
2019-Apr-17 01:30N 49°44' W 001°41'1 1.7
2019-Apr-17 01:01N 49°44' W 001°40'1 1.2
2019-Apr-17 00:31N 49°44' W 001°39'3 6.2
2019-Apr-17 00:01N 49°45' W 001°43'3 5.0
2019-Apr-16 23:31N 49°45' W 001°47'2 3.5
2019-Apr-16 23:00N 49°44' W 001°45'2 3.1
2019-Apr-16 22:30N 49°44' W 001°42'1 2.6
2019-Apr-16 22:00N 49°44' W 001°40'1 2.1
2019-Apr-16 21:30N 49°43' W 001°39'1 1.8
2019-Apr-16 21:01N 49°43' W 001°37'3 5.9
2019-Apr-16 20:30N 49°40' W 001°39'2 3.5
2019-Apr-16 20:01N 49°39' W 001°37'0 0.0
2019-Apr-16 19:30N 49°39' W 001°37'0 0.0
2019-Apr-16 19:00N 49°39' W 001°37'0 0.0
2019-Apr-16 18:30N 49°39' W 001°37'0 0.0
2019-Apr-16 18:00N 49°39' W 001°37'0 0.0
2019-Apr-16 17:30N 49°39' W 001°37'1 1.8
2019-Apr-16 17:00N 49°40' W 001°36'815.5
2019-Apr-16 16:30N 49°48' W 001°35'815.9
2019-Apr-16 16:01N 49°55' W 001°37'816.1
2019-Apr-16 15:30N 50°03' W 001°40'816.0
2019-Apr-16 15:00N 50°11' W 001°43'2016.0
2019-Apr-16 13:47N 50°30' W 001°52'517.6
2019-Apr-16 13:31N 50°35' W 001°53'714.3
2019-Apr-16 13:01N 50°41' W 001°57'2 3.7
2019-Apr-16 12:30N 50°42' W 001°59'0 0.0
2019-Apr-16 12:00N 50°42' W 001°59'0 0.0
2019-Apr-16 11:30N 50°42' W 001°59'0 0.1
2019-Apr-16 11:00N 50°42' W 001°59'4 8.9
2019-Apr-16 10:30N 50°39' W 001°55'815.4
2019-Apr-16 10:00N 50°32' W 001°52'2517.0
2019-Apr-16 08:33N 50°07' W 001°46'617.4
2019-Apr-16 08:14N 50°02' W 001°44'417.3
2019-Apr-16 08:00N 49°58' W 001°43'917.2
2019-Apr-16 07:31N 49°49' W 001°42'917.2
2019-Apr-16 07:00N 49°41' W 001°39'3 5.3
2019-Apr-16 06:30N 49°39' W 001°37'0 0.0
2019-Apr-16 06:01N 49°39' W 001°37'0 0.0
2019-Apr-16 05:30N 49°39' W 001°37'0 0.0
2019-Apr-16 05:00N 49°39' W 001°37'3 6.9
2019-Apr-16 04:30N 49°42' W 001°38'3 5.8
2019-Apr-16 04:00N 49°43' W 001°34'1 2.0
2019-Apr-16 03:30N 49°43' W 001°36'1 1.8
2019-Apr-16 03:00N 49°43' W 001°37'1 1.2
2019-Apr-16 02:30N 49°43' W 001°38'0 0.7
2019-Apr-16 02:00N 49°43' W 001°38'0 0.6
2019-Apr-16 01:30N 49°44' W 001°38'1 1.7
2019-Apr-16 01:00N 49°44' W 001°38'612.3
2019-Apr-16 00:30N 49°51' W 001°39'612.5
2019-Apr-16 00:00N 49°57' W 001°41'612.1
2019-Apr-15 23:30N 50°02' W 001°44'612.6
2019-Apr-15 23:00N 50°08' W 001°46'612.5
2019-Apr-15 22:30N 50°15' W 001°47'612.1
2019-Apr-15 22:01N 50°21' W 001°50'612.3
2019-Apr-15 21:30N 50°27' W 001°51'612.6
2019-Apr-15 21:00N 50°33' W 001°53'713.2
2019-Apr-15 20:30N 50°39' W 001°55'4 8.1
2019-Apr-15 20:00N 50°42' W 001°59'0 0.0
2019-Apr-15 19:30N 50°42' W 001°59'0 0.0
2019-Apr-15 19:00N 50°42' W 001°59'0 0.0
2019-Apr-15 18:31N 50°42' W 001°59'0 0.0
2019-Apr-15 18:01N 50°42' W 001°59'2 4.5
2019-Apr-15 17:30N 50°41' W 001°57'815.1
2019-Apr-15 17:01N 50°34' W 001°52'2616.9
2019-Apr-15 15:29N 50°09' W 001°45'817.2
2019-Apr-15 15:00N 50°00' W 001°44'917.2
2019-Apr-15 14:31N 49°52' W 001°42'917.2
2019-Apr-15 14:01N 49°44' W 001°40'5 9.8
2019-Apr-15 13:29N 49°39' W 001°37'0 0.0
2019-Apr-15 12:59N 49°39' W 001°37'0 0.0
2019-Apr-15 12:29N 49°39' W 001°37'0 0.0
2019-Apr-15 11:59N 49°39' W 001°37'0 0.0
2019-Apr-15 11:29N 49°39' W 001°37'0 0.0
2019-Apr-15 10:59N 49°39' W 001°37'0 0.0
2019-Apr-15 10:30N 49°39' W 001°37'0 0.0
2019-Apr-15 10:01N 49°39' W 001°37'0 0.0
2019-Apr-15 09:30N 49°39' W 001°37'0 0.0
2019-Apr-15 09:00N 49°39' W 001°37'0 0.0
2019-Apr-15 08:30N 49°39' W 001°37'  
Track history (hours):
 
Tides and Currents Weather Stations Pressure Air Temp Water Temp Dewpoint Dewpoint Depression Visibility Wind Speed Wind Dir Waves Ship Positions

Barfleur

Operator: Brittany Ferries

Last reported at 2019-Apr-25 08:21 UTC. Time now 2019-Apr-25 09:50 UTC.
Position N 50°05' W 001°50'.

Length 158 m; draft 5.1 m.

Type: Ship. MMSI: 227289000.

Date/timePositionNaut miles runAvg speedWind from/ knotsBaromVisibWave heightAir tempDewpointWater temp
2019-Apr-25 08:21N 50°05' W 001°50'616.3
2019-Apr-25 08:01N 49°59' W 001°47'816.4
2019-Apr-25 07:30N 49°51' W 001°44'918.3
2019-Apr-25 07:01N 49°42' W 001°40'4 7.7
2019-Apr-25 06:29N 49°39' W 001°37'0 0.0
2019-Apr-25 05:59N 49°39' W 001°37'0 0.0
2019-Apr-25 05:29N 49°39' W 001°37'0 0.0
2019-Apr-25 05:01N 49°39' W 001°37'2 4.5
2019-Apr-25 04:31N 49°40' W 001°39'714.7
2019-Apr-25 04:00N 49°48' W 001°40'1 2.6
2019-Apr-25 03:30N 49°47' W 001°38'1 2.6
2019-Apr-25 03:00N 49°47' W 001°36'1 1.9
2019-Apr-25 02:30N 49°46' W 001°35'1 1.3
2019-Apr-25 02:00N 49°45' W 001°35'1 1.8
2019-Apr-25 01:30N 49°45' W 001°36'510.7
2019-Apr-25 01:01N 49°50' W 001°40'611.8
2019-Apr-25 00:30N 49°55' W 001°39'612.3
2019-Apr-25 00:01N 50°01' W 001°40'612.1
2019-Apr-24 23:30N 50°08' W 001°41'612.5
2019-Apr-24 23:00N 50°14' W 001°43'712.4
2019-Apr-24 22:27N 50°20' W 001°46'1017.2
2019-Apr-24 21:53N 50°30' W 001°51'2 6.2
2019-Apr-24 21:30N 50°32' W 001°52'612.3
2019-Apr-24 21:00N 50°38' W 001°54'510.0
2019-Apr-24 20:30N 50°42' W 001°58'1 1.4
2019-Apr-24 19:55N 50°42' W 001°59'0 0.0
2019-Apr-24 19:25N 50°42' W 001°59'0 0.0
2019-Apr-24 18:58N 50°42' W 001°59'0 0.0
2019-Apr-24 18:30N 50°42' W 001°59'2 4.5
2019-Apr-24 18:00N 50°41' W 001°57'713.1
2019-Apr-24 17:31N 50°35' W 001°54'1017.0
2019-Apr-24 16:55N 50°25' W 001°53'917.6
2019-Apr-24 16:25N 50°16' W 001°51'818.0
2019-Apr-24 15:57N 50°08' W 001°47'818.0
2019-Apr-24 15:30N 50°01' W 001°42'917.8
2019-Apr-24 15:01N 49°52' W 001°40'918.0
2019-Apr-24 14:30N 49°43' W 001°36'4 8.3
2019-Apr-24 14:00N 49°39' W 001°37'0 0.1
2019-Apr-24 13:30N 49°39' W 001°37'0 0.0
2019-Apr-24 13:00N 49°39' W 001°37'64132.6
2019-Apr-24 12:31N 50°42' W 001°57'64128.1
2019-Apr-24 12:00N 49°39' W 001°37'3 5.7
2019-Apr-24 11:30N 49°42' W 001°36'815.5
2019-Apr-24 11:00N 49°49' W 001°37'815.2
2019-Apr-24 10:30N 49°57' W 001°39'815.6
2019-Apr-24 10:00N 50°04' W 001°42'815.8
2019-Apr-24 09:30N 50°12' W 001°45'815.8
2019-Apr-24 08:59N 50°20' W 001°48'1817.6
2019-Apr-24 07:57N 50°38' W 001°54'511.4
2019-Apr-24 07:31N 50°42' W 001°58'1 1.6
2019-Apr-24 06:52N 50°42' W 001°59'0 0.0
2019-Apr-24 06:28N 50°42' W 001°59'0 0.0
2019-Apr-24 06:00N 50°42' W 001°59'2 3.8
2019-Apr-24 05:31N 50°41' W 001°57'3713.8
2019-Apr-24 02:50N 50°06' W 001°39'514.2
2019-Apr-24 02:27N 50°01' W 001°36'613.9
2019-Apr-24 02:00N 49°55' W 001°33'713.8
2019-Apr-24 01:30N 49°49' W 001°29'3 5.1
2019-Apr-24 01:00N 49°46' W 001°29'1 1.1
2019-Apr-24 00:30N 49°46' W 001°29'1 1.5
2019-Apr-24 00:00N 49°46' W 001°30'1 2.2
2019-Apr-23 23:31N 49°45' W 001°32'1 2.8
2019-Apr-23 23:00N 49°45' W 001°34'2 3.1
2019-Apr-23 22:30N 49°45' W 001°37'2 3.8
2019-Apr-23 22:01N 49°45' W 001°39'2 3.9
2019-Apr-23 21:31N 49°45' W 001°42'3 6.1
2019-Apr-23 21:00N 49°42' W 001°42'5 9.8
2019-Apr-23 20:29N 49°39' W 001°37'0 0.1
2019-Apr-23 20:00N 49°39' W 001°37'0 0.0
2019-Apr-23 19:30N 49°39' W 001°37'0 0.0
2019-Apr-23 18:59N 49°39' W 001°37'0 0.0
2019-Apr-23 18:30N 49°39' W 001°37'0 0.0
2019-Apr-23 17:57N 49°39' W 001°37'0 0.0
2019-Apr-23 17:30N 49°39' W 001°37'0 0.1
2019-Apr-23 17:00N 49°39' W 001°37'611.6
2019-Apr-23 16:30N 49°44' W 001°41'815.4
2019-Apr-23 16:00N 49°52' W 001°42'815.4
2019-Apr-23 15:30N 49°59' W 001°43'815.6
2019-Apr-23 15:01N 50°07' W 001°45'815.6
2019-Apr-23 14:31N 50°15' W 001°46'1417.1
2019-Apr-23 13:40N 50°29' W 001°50'318.0
2019-Apr-23 13:31N 50°32' W 001°51'916.9
2019-Apr-23 13:00N 50°40' W 001°56'1530.0
2019-Apr-23 12:31N 50°25' W 001°52'1832.4
2019-Apr-23 11:57N 50°42' W 001°59'0 0.0
2019-Apr-23 11:27N 50°42' W 001°59'0 0.2
2019-Apr-23 11:01N 50°42' W 001°60'4 7.0
2019-Apr-23 10:31N 50°40' W 001°56'1917.1
2019-Apr-23 09:24N 50°21' W 001°50'1417.5
2019-Apr-23 08:36N 50°07' W 001°45'218.0
2019-Apr-23 08:31N 50°06' W 001°45'917.9
2019-Apr-23 08:00N 49°57' W 001°43'917.9
2019-Apr-23 07:30N 49°48' W 001°41'816.7
2019-Apr-23 07:01N 49°40' W 001°38'2 3.0
2019-Apr-23 06:29N 49°39' W 001°37'0 0.0
2019-Apr-23 05:59N 49°39' W 001°37'0 0.0
2019-Apr-23 05:29N 49°39' W 001°37'0 0.0
2019-Apr-23 05:00N 49°39' W 001°37'2 4.5
2019-Apr-23 04:31N 49°40' W 001°39'713.1
2019-Apr-23 04:00N 49°44' W 001°47'2 3.2
2019-Apr-23 03:30N 49°44' W 001°45'2 4.4
2019-Apr-23 03:00N 49°44' W 001°42'2 3.9
2019-Apr-23 02:30N 49°43' W 001°39'2 3.0
2019-Apr-23 02:00N 49°44' W 001°36'1 2.1
2019-Apr-23 01:30N 49°44' W 001°35'1 1.3
2019-Apr-23 01:00N 49°44' W 001°34'2 3.5
2019-Apr-23 00:31N 49°46' W 001°34'714.4
2019-Apr-23 00:01N 49°53' W 001°35'714.3
2019-Apr-22 23:30N 50°00' W 001°37'714.4
2019-Apr-22 23:00N 50°07' W 001°40'714.7
2019-Apr-22 22:31N 50°14' W 001°43'714.5
2019-Apr-22 22:00N 50°21' W 001°46'714.3
2019-Apr-22 21:30N 50°28' W 001°50'713.8
2019-Apr-22 21:00N 50°35' W 001°53'612.6
2019-Apr-22 20:30N 50°40' W 001°56'3 5.8
2019-Apr-22 20:00N 50°42' W 001°59'0 0.0
2019-Apr-22 19:30N 50°42' W 001°59'0 0.0
2019-Apr-22 19:00N 50°42' W 001°59'0 0.0
2019-Apr-22 18:30N 50°42' W 001°59'0 0.1
2019-Apr-22 18:00N 50°42' W 001°59'2 4.9
2019-Apr-22 17:31N 50°41' W 001°57'612.3
2019-Apr-22 17:01N 50°35' W 001°54'917.2
2019-Apr-22 16:30N 50°26' W 001°52'917.7
2019-Apr-22 16:01N 50°18' W 001°49'917.8
2019-Apr-22 15:31N 50°09' W 001°47'917.7
2019-Apr-22 15:01N 50°00' W 001°44'917.6
2019-Apr-22 14:30N 49°51' W 001°42'917.1
2019-Apr-22 14:00N 49°43' W 001°40'5 9.3
2019-Apr-22 13:30N 49°39' W 001°37'0 0.0
2019-Apr-22 13:00N 49°39' W 001°37'0 0.0
2019-Apr-22 12:30N 49°39' W 001°37'0 0.0
2019-Apr-22 12:00N 49°39' W 001°37'2 4.4
2019-Apr-22 11:31N 49°41' W 001°35'816.1
2019-Apr-22 11:00N 49°49' W 001°36'816.5
2019-Apr-22 10:30N 49°57' W 001°39'816.0
2019-Apr-22 10:01N 50°05' W 001°42'917.1
2019-Apr-22 09:31N 50°13' W 001°45'917.9
2019-Apr-22 09:01N 50°22' W 001°48'917.9
2019-Apr-22 08:31N 50°30' W 001°51'816.7
2019-Apr-22 08:00N 50°39' W 001°55'5 9.3
2019-Apr-22 07:30N 50°42' W 001°59'0 0.9
2019-Apr-22 06:59N 50°42' W 001°59'0 0.0
2019-Apr-22 06:30N 50°42' W 001°59'0 0.0
2019-Apr-22 06:01N 50°42' W 001°59'2 3.9
2019-Apr-22 05:30N 50°41' W 001°57'510.6
2019-Apr-22 05:01N 50°36' W 001°54'713.5
2019-Apr-22 04:30N 50°30' W 001°53'713.0
2019-Apr-22 04:00N 50°23' W 001°53'713.6
2019-Apr-22 03:30N 50°16' W 001°51'713.5
2019-Apr-22 03:00N 50°10' W 001°49'714.7
2019-Apr-22 02:30N 50°03' W 001°45'713.6
2019-Apr-22 02:00N 49°56' W 001°43'713.6
2019-Apr-22 01:30N 49°50' W 001°41'713.3
2019-Apr-22 01:01N 49°43' W 001°40'1 1.7
2019-Apr-22 00:30N 49°43' W 001°39'1 1.6
2019-Apr-22 00:00N 49°43' W 001°37'0 0.7
2019-Apr-21 23:30N 49°43' W 001°37'0 0.7
2019-Apr-21 23:00N 49°43' W 001°37'1 1.2
2019-Apr-21 22:30N 49°44' W 001°38'1 1.9
2019-Apr-21 22:00N 49°44' W 001°40'1 2.7
2019-Apr-21 21:30N 49°44' W 001°42'2 3.8
2019-Apr-21 21:00N 49°44' W 001°44'612.0
2019-Apr-21 20:30N 49°40' W 001°38'2 2.8
2019-Apr-21 19:58N 49°39' W 001°37'0 0.0
2019-Apr-21 19:28N 49°39' W 001°37'0 0.0
2019-Apr-21 18:58N 49°39' W 001°37'0 0.0
2019-Apr-21 18:28N 49°39' W 001°37'0 0.0
2019-Apr-21 17:58N 49°39' W 001°37'0 0.0
2019-Apr-21 17:28N 49°39' W 001°37'0 0.2
2019-Apr-21 17:00N 49°39' W 001°37'611.6
2019-Apr-21 16:30N 49°44' W 001°41'917.6
2019-Apr-21 16:00N 49°53' W 001°43'917.4
2019-Apr-21 15:30N 50°01' W 001°45'917.1
2019-Apr-21 15:00N 50°10' W 001°46'815.2
2019-Apr-21 14:30N 50°17' W 001°48'815.5
2019-Apr-21 14:00N 50°25' W 001°51'917.8
2019-Apr-21 13:30N 50°34' W 001°53'815.9
2019-Apr-21 13:00N 50°41' W 001°57'2 3.6
2019-Apr-21 12:29N 50°42' W 001°59'0 0.0
2019-Apr-21 11:55N 50°42' W 001°59'0 0.0
2019-Apr-21 11:28N 50°42' W 001°59'2 3.3
2019-Apr-21 11:01N 50°42' W 001°57'612.2
2019-Apr-21 10:30N 50°36' W 001°53'917.2
2019-Apr-21 10:00N 50°28' W 001°48'816.7
2019-Apr-21 09:30N 50°20' W 001°44'817.0
2019-Apr-21 09:00N 50°12' W 001°43'917.3
2019-Apr-21 08:30N 50°03' W 001°42'917.4
2019-Apr-21 08:00N 49°55' W 001°42'816.6
2019-Apr-21 07:31N 49°46' W 001°40'713.9
2019-Apr-21 07:01N 49°40' W 001°37'1 1.6
2019-Apr-21 06:28N 49°39' W 001°37'0 0.0
2019-Apr-21 05:58N 49°39' W 001°37'0 0.0
2019-Apr-21 05:28N 49°39' W 001°37'0 0.0
2019-Apr-21 05:00N 49°39' W 001°37'2 4.2
2019-Apr-21 04:31N 49°40' W 001°39'815.2
2019-Apr-21 04:00N 49°45' W 001°48'2 3.4
2019-Apr-21 03:30N 49°45' W 001°46'2 4.3
2019-Apr-21 03:00N 49°45' W 001°43'2 4.1
2019-Apr-21 02:30N 49°45' W 001°39'2 4.0
2019-Apr-21 02:00N 49°45' W 001°36'2 4.1
2019-Apr-21 01:30N 49°46' W 001°33'2 3.6
2019-Apr-21 01:00N 49°46' W 001°30'3 5.4
2019-Apr-21 00:30N 49°48' W 001°33'713.8
2019-Apr-21 00:01N 49°54' W 001°37'714.3
2019-Apr-20 23:31N 50°00' W 001°42'714.6
2019-Apr-20 23:00N 50°07' W 001°45'714.4
2019-Apr-20 22:31N 50°14' W 001°47'714.0
2019-Apr-20 22:00N 50°21' W 001°48'713.4
2019-Apr-20 21:30N 50°28' W 001°48'713.9
2019-Apr-20 21:00N 50°35' W 001°52'713.1
2019-Apr-20 20:30N 50°41' W 001°56'3 4.7
2019-Apr-20 19:55N 50°42' W 001°59'0 0.0
2019-Apr-20 19:28N 50°42' W 001°59'0 0.0
2019-Apr-20 19:00N 50°42' W 001°59'0 0.0
2019-Apr-20 18:30N 50°42' W 001°59'0 0.0
2019-Apr-20 18:00N 50°42' W 001°59'2 3.7
2019-Apr-20 17:31N 50°41' W 001°57'713.4
2019-Apr-20 17:01N 50°35' W 001°53'917.6
2019-Apr-20 16:31N 50°26' W 001°51'917.1
2019-Apr-20 16:01N 50°18' W 001°52'815.1
2019-Apr-20 15:30N 50°10' W 001°52'816.6
2019-Apr-20 15:01N 50°03' W 001°47'815.8
2019-Apr-20 14:31N 49°55' W 001°44'917.3
2019-Apr-20 14:01N 49°47' W 001°41'815.5
2019-Apr-20 13:31N 49°39' W 001°37'1 1.1
2019-Apr-20 13:00N 49°39' W 001°37'0 0.0
2019-Apr-20 12:30N 49°39' W 001°37'0 0.0
2019-Apr-20 12:00N 49°39' W 001°37'0 0.0
2019-Apr-20 11:30N 49°39' W 001°37'0 0.0
2019-Apr-20 11:00N 49°39' W 001°37'0 0.0
2019-Apr-20 10:30N 49°39' W 001°37'0 0.0
2019-Apr-20 10:00N 49°39' W 001°37'0 0.0
2019-Apr-20 09:30N 49°39' W 001°37'0 0.0
2019-Apr-20 09:00N 49°39' W 001°37'0 0.0
2019-Apr-20 08:30N 49°39' W 001°37'0 0.0
2019-Apr-20 08:00N 49°39' W 001°37'0 0.0
2019-Apr-20 07:28N 49°39' W 001°37'0 0.0
2019-Apr-20 06:58N 49°39' W 001°37'0 0.0
2019-Apr-20 06:28N 49°39' W 001°37'0 0.0
2019-Apr-20 05:58N 49°39' W 001°37'0 0.0
2019-Apr-20 05:28N 49°39' W 001°37'0 0.0
2019-Apr-20 05:00N 49°39' W 001°37'2 3.9
2019-Apr-20 04:30N 49°40' W 001°39'611.6
2019-Apr-20 04:00N 49°45' W 001°43'3 5.1
2019-Apr-20 03:30N 49°45' W 001°47'1 1.6
2019-Apr-20 03:00N 49°44' W 001°47'2 3.8
2019-Apr-20 02:30N 49°44' W 001°44'2 4.1
2019-Apr-20 02:00N 49°44' W 001°40'2 4.0
2019-Apr-20 01:30N 49°45' W 001°37'2 3.4
2019-Apr-20 01:00N 49°45' W 001°35'4 7.9
2019-Apr-20 00:30N 49°49' W 001°37'612.8
2019-Apr-20 00:00N 49°54' W 001°41'713.8
2019-Apr-19 23:31N 50°01' W 001°45'714.3
2019-Apr-19 23:01N 50°08' W 001°47'714.5
2019-Apr-19 22:30N 50°15' W 001°51'713.9
2019-Apr-19 22:00N 50°22' W 001°51'713.6
2019-Apr-19 21:30N 50°29' W 001°52'713.2
2019-Apr-19 21:00N 50°35' W 001°53'612.1
2019-Apr-19 20:30N 50°41' W 001°57'3 4.8
2019-Apr-19 19:59N 50°42' W 001°59'0 0.0
2019-Apr-19 19:29N 50°42' W 001°59'0 0.0
2019-Apr-19 19:00N 50°42' W 001°59'0 0.0
2019-Apr-19 18:30N 50°42' W 001°59'1 1.8
2019-Apr-19 18:00N 50°42' W 001°58'3 6.4
2019-Apr-19 17:30N 50°39' W 001°55'4 7.6
2019-Apr-19 17:00N 50°36' W 001°53'1717.9
2019-Apr-19 16:03N 50°19' W 001°49'117.9
2019-Apr-19 16:00N 50°18' W 001°49'917.9
2019-Apr-19 15:30N 50°10' W 001°46'917.4
2019-Apr-19 15:00N 50°01' W 001°44'816.7
2019-Apr-19 14:30N 49°53' W 001°44'917.3
2019-Apr-19 14:00N 49°44' W 001°42'612.4
2019-Apr-19 13:30N 49°39' W 001°37'0 0.0
2019-Apr-19 13:00N 49°39' W 001°37'0 0.0
2019-Apr-19 12:30N 49°39' W 001°37'0 0.0
2019-Apr-19 12:00N 49°39' W 001°37'4 7.3
2019-Apr-19 11:31N 49°42' W 001°40'817.0
2019-Apr-19 11:00N 49°50' W 001°43'816.6
2019-Apr-19 10:30N 49°58' W 001°46'815.8
2019-Apr-19 10:00N 50°06' W 001°46'816.1
2019-Apr-19 09:30N 50°14' W 001°47'816.2
2019-Apr-19 09:01N 50°22' W 001°49'917.3
2019-Apr-19 08:31N 50°31' W 001°51'816.5
2019-Apr-19 08:00N 50°39' W 001°55'5 9.9
2019-Apr-19 07:30N 50°42' W 001°59'0 0.1
2019-Apr-19 07:00N 50°42' W 001°59'0 0.0
2019-Apr-19 06:30N 50°42' W 001°59'0 0.0
2019-Apr-19 06:00N 50°42' W 001°59'2 3.4
2019-Apr-19 05:31N 50°42' W 001°57'713.6
2019-Apr-19 05:00N 50°36' W 001°52'1216.8
2019-Apr-19 04:19N 50°24' W 001°52'515.2
2019-Apr-19 03:59N 50°19' W 001°51'613.1
2019-Apr-19 03:30N 50°13' W 001°50'611.5
2019-Apr-19 03:00N 50°07' W 001°50'611.8
2019-Apr-19 02:30N 50°01' W 001°48'612.7
2019-Apr-19 02:01N 49°55' W 001°45'713.4
2019-Apr-19 01:30N 49°49' W 001°43'510.6
2019-Apr-19 01:00N 49°43' W 001°41'1 1.5
2019-Apr-19 00:30N 49°43' W 001°40'3 5.6
2019-Apr-19 00:00N 49°43' W 001°44'2 3.7
2019-Apr-18 23:31N 49°43' W 001°47'2 3.4
2019-Apr-18 23:00N 49°43' W 001°44'1 2.7
2019-Apr-18 22:30N 49°43' W 001°42'1 1.6
2019-Apr-18 22:00N 49°43' W 001°41'0 0.9
2019-Apr-18 21:30N 49°43' W 001°40'0 0.7
2019-Apr-18 21:00N 49°43' W 001°40'3 6.8
2019-Apr-18 20:30N 49°40' W 001°38'1 2.5
2019-Apr-18 20:00N 49°39' W 001°37'0 0.0
2019-Apr-18 19:30N 49°39' W 001°37'0 0.0
2019-Apr-18 19:00N 49°39' W 001°37'0 0.0
2019-Apr-18 18:30N 49°39' W 001°37'0 0.0
2019-Apr-18 18:00N 49°39' W 001°37'0 0.0
2019-Apr-18 17:31N 49°39' W 001°37'1 1.3
2019-Apr-18 17:00N 49°40' W 001°37'713.2
2019-Apr-18 16:30N 49°46' W 001°41'816.6
2019-Apr-18 16:00N 49°54' W 001°43'917.0
2019-Apr-18 15:30N 50°02' W 001°46'917.3
2019-Apr-18 15:00N 50°11' W 001°47'815.4
2019-Apr-18 14:30N 50°18' W 001°49'815.1
2019-Apr-18 14:00N 50°26' W 001°51'816.1
2019-Apr-18 13:30N 50°34' W 001°53'815.6
2019-Apr-18 13:01N 50°41' W 001°57'2 4.1
2019-Apr-18 12:30N 50°42' W 001°59'0 0.0
2019-Apr-18 12:00N 50°42' W 001°59'0 0.0
2019-Apr-18 11:30N 50°42' W 001°59'0 0.1
2019-Apr-18 11:00N 50°42' W 001°60'4 8.2
2019-Apr-18 10:30N 50°39' W 001°55'816.3
2019-Apr-18 10:00N 50°32' W 001°51'1517.1
2019-Apr-18 09:06N 50°16' W 001°49'216.9
2019-Apr-18 09:00N 50°15' W 001°49'816.8
2019-Apr-18 08:30N 50°06' W 001°46'816.9
2019-Apr-18 08:00N 49°58' W 001°44'816.6
2019-Apr-18 07:30N 49°50' W 001°42'816.3
2019-Apr-18 07:00N 49°42' W 001°40'4 7.4
2019-Apr-18 06:30N 49°39' W 001°37'0 0.0
2019-Apr-18 06:00N 49°39' W 001°37'0 0.0
2019-Apr-18 05:30N 49°39' W 001°37'0 0.0
2019-Apr-18 05:00N 49°39' W 001°37'3 5.5
2019-Apr-18 04:30N 49°41' W 001°39'1 1.0
2019-Apr-18 04:00N 49°41' W 001°40'0 0.8
2019-Apr-18 03:30N 49°42' W 001°40'1 1.0
2019-Apr-18 03:01N 49°42' W 001°39'1 1.6
2019-Apr-18 02:30N 49°43' W 001°38'1 2.2
2019-Apr-18 02:00N 49°43' W 001°37'1 2.9
2019-Apr-18 01:30N 49°44' W 001°35'5 9.9
2019-Apr-18 01:00N 49°49' W 001°37'510.8
2019-Apr-18 00:30N 49°54' W 001°41'611.0
2019-Apr-18 00:00N 49°59' W 001°44'612.2
2019-Apr-17 23:30N 50°05' W 001°46'613.0
2019-Apr-17 23:01N 50°11' W 001°47'713.2
2019-Apr-17 22:30N 50°18' W 001°48'713.2
2019-Apr-17 22:00N 50°24' W 001°51'713.4
2019-Apr-17 21:31N 50°31' W 001°52'713.3
2019-Apr-17 21:00N 50°37' W 001°54'510.9
2019-Apr-17 20:30N 50°42' W 001°57'1 2.7
2019-Apr-17 20:01N 50°42' W 001°59'0 0.0
2019-Apr-17 19:30N 50°42' W 001°59'0 0.0
2019-Apr-17 19:00N 50°42' W 001°59'0 0.0
2019-Apr-17 18:30N 50°42' W 001°59'1 1.0
2019-Apr-17 18:00N 50°42' W 001°59'4 8.4
2019-Apr-17 17:30N 50°39' W 001°55'816.0
2019-Apr-17 17:00N 50°31' W 001°50'917.7
2019-Apr-17 16:31N 50°23' W 001°50'917.6
2019-Apr-17 16:01N 50°14' W 001°48'917.7
2019-Apr-17 15:30N 50°05' W 001°46'917.5
2019-Apr-17 15:01N 49°56' W 001°45'917.5
2019-Apr-17 14:30N 49°48' W 001°42'816.3
2019-Apr-17 14:00N 49°40' W 001°38'1 3.0
2019-Apr-17 13:30N 49°39' W 001°37'0 0.0
2019-Apr-17 13:00N 49°39' W 001°37'0 0.0
2019-Apr-17 12:31N 49°39' W 001°37'0 0.0
2019-Apr-17 12:00N 49°39' W 001°37'4 7.9
2019-Apr-17 11:31N 49°42' W 001°40'816.5
2019-Apr-17 11:00N 49°50' W 001°42'917.2
2019-Apr-17 10:30N 49°59' W 001°44'917.8
2019-Apr-17 10:00N 50°08' W 001°45'917.8
2019-Apr-17 09:30N 50°16' W 001°49'917.9
2019-Apr-17 09:01N 50°25' W 001°50'917.7
2019-Apr-17 08:31N 50°34' W 001°53'714.5
2019-Apr-17 08:00N 50°41' W 001°57'3 5.1
2019-Apr-17 07:30N 50°42' W 001°59'0 0.0
2019-Apr-17 07:00N 50°42' W 001°59'0 0.0
2019-Apr-17 06:30N 50°42' W 001°59'0 0.2
2019-Apr-17 06:00N 50°42' W 001°60'4 8.6
2019-Apr-17 05:31N 50°39' W 001°55'816.6
2019-Apr-17 05:00N 50°32' W 001°50'2014.7
2019-Apr-17 03:40N 50°12' W 001°47'813.4
2019-Apr-17 03:02N 50°03' W 001°46'013.5
2019-Apr-17 03:00N 50°03' W 001°46'613.2
2019-Apr-17 02:30N 49°57' W 001°45'713.2
2019-Apr-17 02:00N 49°50' W 001°43'612.2
2019-Apr-17 01:30N 49°44' W 001°41'1 1.7
2019-Apr-17 01:01N 49°44' W 001°40'1 1.2
2019-Apr-17 00:31N 49°44' W 001°39'3 6.2
2019-Apr-17 00:01N 49°45' W 001°43'3 5.0
2019-Apr-16 23:31N 49°45' W 001°47'2 3.5
2019-Apr-16 23:00N 49°44' W 001°45'2 3.1
2019-Apr-16 22:30N 49°44' W 001°42'1 2.6
2019-Apr-16 22:00N 49°44' W 001°40'1 2.1
2019-Apr-16 21:30N 49°43' W 001°39'1 1.8
2019-Apr-16 21:01N 49°43' W 001°37'3 5.9
2019-Apr-16 20:30N 49°40' W 001°39'2 3.5
2019-Apr-16 20:01N 49°39' W 001°37'0 0.0
2019-Apr-16 19:30N 49°39' W 001°37'0 0.0
2019-Apr-16 19:00N 49°39' W 001°37'0 0.0
2019-Apr-16 18:30N 49°39' W 001°37'0 0.0
2019-Apr-16 18:00N 49°39' W 001°37'0 0.0
2019-Apr-16 17:30N 49°39' W 001°37'1 1.8
2019-Apr-16 17:00N 49°40' W 001°36'815.5
2019-Apr-16 16:30N 49°48' W 001°35'815.9
2019-Apr-16 16:01N 49°55' W 001°37'816.1
2019-Apr-16 15:30N 50°03' W 001°40'816.0
2019-Apr-16 15:00N 50°11' W 001°43'2016.0
2019-Apr-16 13:47N 50°30' W 001°52'517.6
2019-Apr-16 13:31N 50°35' W 001°53'714.3
2019-Apr-16 13:01N 50°41' W 001°57'2 3.7
2019-Apr-16 12:30N 50°42' W 001°59'0 0.0
2019-Apr-16 12:00N 50°42' W 001°59'0 0.0
2019-Apr-16 11:30N 50°42' W 001°59'0 0.1
2019-Apr-16 11:00N 50°42' W 001°59'4 8.9
2019-Apr-16 10:30N 50°39' W 001°55'815.4
2019-Apr-16 10:00N 50°32' W 001°52'2517.0
2019-Apr-16 08:33N 50°07' W 001°46'617.4
2019-Apr-16 08:14N 50°02' W 001°44'417.3
2019-Apr-16 08:00N 49°58' W 001°43'917.2
2019-Apr-16 07:31N 49°49' W 001°42'917.2
2019-Apr-16 07:00N 49°41' W 001°39'3 5.3
2019-Apr-16 06:30N 49°39' W 001°37'0 0.0
2019-Apr-16 06:01N 49°39' W 001°37'0 0.0
2019-Apr-16 05:30N 49°39' W 001°37'0 0.0
2019-Apr-16 05:00N 49°39' W 001°37'3 6.9
2019-Apr-16 04:30N 49°42' W 001°38'3 5.8
2019-Apr-16 04:00N 49°43' W 001°34'1 2.0
2019-Apr-16 03:30N 49°43' W 001°36'1 1.8
2019-Apr-16 03:00N 49°43' W 001°37'1 1.2
2019-Apr-16 02:30N 49°43' W 001°38'0 0.7
2019-Apr-16 02:00N 49°43' W 001°38'0 0.6
2019-Apr-16 01:30N 49°44' W 001°38'1 1.7
2019-Apr-16 01:00N 49°44' W 001°38'612.3
2019-Apr-16 00:30N 49°51' W 001°39'612.5
2019-Apr-16 00:00N 49°57' W 001°41'612.1
2019-Apr-15 23:30N 50°02' W 001°44'612.6
2019-Apr-15 23:00N 50°08' W 001°46'612.5
2019-Apr-15 22:30N 50°15' W 001°47'612.1
2019-Apr-15 22:01N 50°21' W 001°50'612.3
2019-Apr-15 21:30N 50°27' W 001°51'612.6
2019-Apr-15 21:00N 50°33' W 001°53'713.2
2019-Apr-15 20:30N 50°39' W 001°55'4 8.1
2019-Apr-15 20:00N 50°42' W 001°59'0 0.0
2019-Apr-15 19:30N 50°42' W 001°59'0 0.0
2019-Apr-15 19:00N 50°42' W 001°59'0 0.0
2019-Apr-15 18:31N 50°42' W 001°59'0 0.0
2019-Apr-15 18:01N 50°42' W 001°59'2 4.5
2019-Apr-15 17:30N 50°41' W 001°57'815.1
2019-Apr-15 17:01N 50°34' W 001°52'2616.9
2019-Apr-15 15:29N 50°09' W 001°45'817.2
2019-Apr-15 15:00N 50°00' W 001°44'917.2
2019-Apr-15 14:31N 49°52' W 001°42'917.2
2019-Apr-15 14:01N 49°44' W 001°40'5 9.8
2019-Apr-15 13:29N 49°39' W 001°37'0 0.0
2019-Apr-15 12:59N 49°39' W 001°37'0 0.0
2019-Apr-15 12:29N 49°39' W 001°37'0 0.0
2019-Apr-15 11:59N 49°39' W 001°37'0 0.0
2019-Apr-15 11:29N 49°39' W 001°37'0 0.0
2019-Apr-15 10:59N 49°39' W 001°37'0 0.0
2019-Apr-15 10:30N 49°39' W 001°37'0 0.0
2019-Apr-15 10:01N 49°39' W 001°37'0 0.0
2019-Apr-15 09:30N 49°39' W 001°37'0 0.0
2019-Apr-15 09:00N 49°39' W 001°37'0 0.0
2019-Apr-15 08:30N 49°39' W 001°37'  

Dump ship's entire track history